Time;durP1;ratioP1;P1;durP2;ratioP2;P2;SDS_P1;SDS_P2;PMS_P1;PMS_P2;Temp;Humidity;BMP_temperature;BMP_pressure;BME280_temperature;BME280_humidity;BME280_pressure;Samples;Min_cycle;Max_cycle;Signal;HPM_P1;HPM_P2
2022/09/23 00:01:57;;;;;;;;;;;;;;;8.15;75.19;101043.91;4954006;29;19942;-76
2022/09/23 00:05:00;;;;;;;;;;;;;;;8.13;75.11;101039.63;4954355;29;19973;-76
2022/09/23 00:08:04;;;;;;;;;;;;;;;8.19;74.93;101044.66;4953212;29;20010;-76
2022/09/23 00:11:09;;;;;;;;;;;;;;;8.11;74.89;101037.09;4954105;29;20018;-76
2022/09/23 00:14:12;;;;;;;;;;;;;;;8.14;75.31;101037.00;4953801;29;19926;-76
2022/09/23 00:17:16;;;;;;;;;;;;;;;8.23;74.48;101041.06;4953636;29;19969;-76
2022/09/23 00:20:19;;;;;;;;;;;;;;;8.09;74.79;101046.72;4953975;29;19961;-76
2022/09/23 00:23:22;;;;;;;;;;;;;;;8.06;74.84;101033.78;4954063;29;19921;-76
2022/09/23 00:26:26;;;;;;;;;;;;;;;7.89;75.59;101043.94;4954127;29;19921;-76
2022/09/23 00:29:30;;;;;;;;;;;;;;;8.02;75.49;101041.78;4953825;29;20013;-76
2022/09/23 00:32:33;;;;;;;;;;;;;;;7.97;75.38;101033.25;4953714;29;19968;-76
2022/09/23 00:35:37;;;;;;;;;;;;;;;8.06;75.13;101040.75;4953641;29;20021;-77
2022/09/23 00:38:40;;;;;;;;;;;;;;;7.98;75.50;101035.81;4953519;29;19926;-76
2022/09/23 00:41:53;;;;;;;;;;;;;;;8.02;75.28;101040.00;4953354;29;19925;-76
2022/09/23 00:44:57;;;;;;;;;;;;;;;7.99;75.45;101029.69;4953135;29;19973;-76
2022/09/23 00:48:01;;;;;;;;;;;;;;;7.90;75.97;101032.59;4953495;29;19921;-77
2022/09/23 00:51:06;;;;;;;;;;;;;;;7.89;75.72;101028.31;4953821;29;19970;-76
2022/09/23 00:54:09;;;;;;;;;;;;;;;7.77;76.31;101020.91;4942061;29;19968;-77
2022/09/23 00:57:14;;;;;;;;;;;;;;;7.83;75.50;101023.28;4941777;29;19925;-76
2022/09/23 01:00:18;;;;;;;;;;;;;;;7.83;75.69;101031.97;4953700;29;20278;-76
2022/09/23 01:03:24;;;;;;;;;;;;;;;7.78;75.25;101017.38;4955731;28;19921;-77
2022/09/23 01:06:28;;;;;;;;;;;;;;;7.89;75.01;101012.69;4956747;29;19921;-76
2022/09/23 01:09:31;;;;;;;;;;;;;;;7.76;75.26;101014.00;4957083;29;20428;-77
2022/09/23 01:12:35;;;;;;;;;;;;;;;7.67;75.37;101010.78;4957054;29;19922;-76
2022/09/23 01:15:41;;;;;;;;;;;;;;;7.64;75.49;101016.06;4956719;29;19921;-76
2022/09/23 01:19:11;;;;;;;;;;;;;;;7.50;76.05;101009.59;4956541;29;19925;-76
2022/09/23 01:22:24;;;;;;;;;;;;;;;7.52;76.14;101011.25;4949176;29;20281;-77
2022/09/23 01:25:36;;;;;;;;;;;;;;;7.54;76.23;101009.47;4956342;28;19937;-76
2022/09/23 01:28:48;;;;;;;;;;;;;;;7.61;75.14;101005.75;4956224;29;20007;-76
2022/09/23 01:31:57;;;;;;;;;;;;;;;7.64;75.29;101010.03;4956726;29;19969;-76
2022/09/23 01:35:01;;;;;;;;;;;;;;;7.61;75.07;101004.91;4956276;29;19926;-76
2022/09/23 01:38:19;;;;;;;;;;;;;;;7.48;75.41;101004.47;4955310;29;19925;-76
2022/09/23 01:41:31;;;;;;;;;;;;;;;7.45;75.01;100999.34;4956047;29;19920;-76
2022/09/23 01:44:53;;;;;;;;;;;;;;;7.36;75.24;100991.84;4956204;29;19925;-77
2022/09/23 01:48:03;;;;;;;;;;;;;;;7.41;75.11;100993.41;4956023;29;20000;-77
2022/09/23 01:51:06;;;;;;;;;;;;;;;7.43;74.65;100986.41;4955985;29;19969;-77
2022/09/23 01:54:14;;;;;;;;;;;;;;;7.37;75.36;100980.53;4944019;29;19969;-76
2022/09/23 01:57:23;;;;;;;;;;;;;;;7.34;75.16;100986.69;4955953;29;19921;-76
2022/09/23 02:00:28;;;;;;;;;;;;;;;7.36;75.01;100981.44;4955869;29;20293;-77
2022/09/23 02:03:36;;;;;;;;;;;;;;;7.19;75.23;100980.22;4955976;29;19960;-77
2022/09/23 02:06:47;;;;;;;;;;;;;;;7.26;75.06;100982.63;4955862;29;20289;-77
2022/09/23 02:10:02;;;;;;;;;;;;;;;7.14;75.53;100978.66;4955621;29;20412;-77
2022/09/23 02:13:14;;;;;;;;;;;;;;;7.21;75.54;100974.94;4955298;28;20397;-77
2022/09/23 02:16:17;;;;;;;;;;;;;;;7.11;75.65;100973.53;4955798;29;19980;-77
2022/09/23 02:19:33;;;;;;;;;;;;;;;7.10;75.60;100975.28;4955391;29;19977;-77
2022/09/23 02:23:00;;;;;;;;;;;;;;;7.12;75.72;100977.84;4955770;29;20090;-77
2022/09/23 02:26:10;;;;;;;;;;;;;;;6.97;76.11;100976.56;4954935;28;19960;-76
2022/09/23 02:29:13;;;;;;;;;;;;;;;6.99;75.91;100975.63;4955222;29;20020;-77
2022/09/23 02:32:31;;;;;;;;;;;;;;;7.02;75.91;100969.50;4955133;29;19970;-76
2022/09/23 02:35:41;;;;;;;;;;;;;;;7.01;75.45;100965.16;4955886;29;20013;-76
2022/09/23 02:38:51;;;;;;;;;;;;;;;6.95;75.68;100967.94;4953093;29;19938;-77
2022/09/23 02:42:04;;;;;;;;;;;;;;;7.05;74.94;100961.59;4954573;29;19921;-76
2022/09/23 02:45:07;;;;;;;;;;;;;;;6.98;75.24;100963.50;4954929;29;19964;-77
2022/09/23 02:48:17;;;;;;;;;;;;;;;6.87;75.57;100970.78;4954987;29;20346;-76
2022/09/23 02:51:24;;;;;;;;;;;;;;;6.91;75.07;100968.94;4943023;29;20061;-76
2022/09/23 02:54:27;;;;;;;;;;;;;;;6.87;75.15;100964.75;4954716;29;20433;-76
2022/09/23 02:57:31;;;;;;;;;;;;;;;7.04;74.56;100966.84;4954736;29;20009;-77
2022/09/23 03:00:53;;;;;;;;;;;;;;;6.69;75.65;100973.94;4955331;29;19937;-76
2022/09/23 03:03:56;;;;;;;;;;;;;;;6.85;75.01;100971.72;4954891;29;20388;-77
2022/09/23 03:07:05;;;;;;;;;;;;;;;6.78;75.47;100970.22;4953722;29;20004;-77
2022/09/23 03:10:08;;;;;;;;;;;;;;;6.95;74.40;100962.75;4954508;29;19921;-76
2022/09/23 03:13:28;;;;;;;;;;;;;;;6.82;74.89;100966.63;4954818;29;19961;-76
2022/09/23 03:16:32;;;;;;;;;;;;;;;6.72;75.31;100956.50;4954404;29;19970;-76
2022/09/23 03:19:41;;;;;;;;;;;;;;;6.83;74.65;100957.91;4954494;29;19925;-76
2022/09/23 03:22:47;;;;;;;;;;;;;;;6.60;75.17;100951.66;4954601;29;20417;-76
2022/09/23 03:25:53;;;;;;;;;;;;;;;6.79;75.03;100956.31;4953755;28;19961;-76
2022/09/23 03:28:57;;;;;;;;;;;;;;;6.61;75.30;100950.78;4954441;29;20014;-76
2022/09/23 03:32:01;;;;;;;;;;;;;;;6.71;74.66;100944.41;4954336;29;19934;-76
2022/09/23 03:35:05;;;;;;;;;;;;;;;6.65;74.84;100954.97;4954232;29;20314;-75
2022/09/23 03:38:14;;;;;;;;;;;;;;;6.52;75.17;100949.28;4954150;29;20035;-75
2022/09/23 03:41:27;;;;;;;;;;;;;;;6.60;74.81;100951.66;4954341;29;20341;-76
2022/09/23 03:44:38;;;;;;;;;;;;;;;6.69;74.43;100943.59;4954421;29;19965;-75
2022/09/23 03:47:41;;;;;;;;;;;;;;;6.66;74.93;100930.69;4954403;29;19969;-75
2022/09/23 03:50:45;;;;;;;;;;;;;;;6.77;73.95;100926.94;4954095;29;20297;-75
2022/09/23 03:53:49;;;;;;;;;;;;;;;6.48;74.98;100932.09;4954150;29;19961;-76
2022/09/23 03:56:55;;;;;;;;;;;;;;;6.50;75.40;100930.28;4954252;29;19997;-76
2022/09/23 03:59:58;;;;;;;;;;;;;;;6.65;75.02;100929.00;4954072;29;20130;-75
2022/09/23 04:03:02;;;;;;;;;;;;;;;6.70;74.68;100921.91;4955744;29;20384;-74
2022/09/23 04:06:05;;;;;;;;;;;;;;;6.52;75.36;100917.25;4953665;29;19925;-75
2022/09/23 04:09:08;;;;;;;;;;;;;;;6.69;74.74;100920.19;4953799;29;19973;-76
2022/09/23 04:12:13;;;;;;;;;;;;;;;6.54;75.00;100923.28;4954237;29;19957;-76
2022/09/23 04:15:17;;;;;;;;;;;;;;;6.83;74.54;100913.72;4953777;29;19925;-76
2022/09/23 04:18:34;;;;;;;;;;;;;;;6.96;74.56;100908.13;4958151;29;19929;-75
2022/09/23 04:21:52;;;;;;;;;;;;;;;6.82;75.05;100914.63;4961002;29;19922;-76
2022/09/23 04:40:43;;;;;;;;;;;;;;;;;;;;;
2022/09/23 04:43:56;;;;;;;;;;;;;;;6.58;80.81;100914.47;4957577;29;19985;-76
2022/09/23 04:46:59;;;;;;;;;;;;;;;6.71;80.40;100917.56;4958432;29;19924;-76
2022/09/23 04:50:04;;;;;;;;;;;;;;;6.59;79.44;100908.38;4956996;28;20419;-75
2022/09/23 04:53:07;;;;;;;;;;;;;;;6.66;79.79;100915.09;4966659;28;19924;-76
2022/09/23 04:56:32;;;;;;;;;;;;;;;6.57;79.75;100917.13;5009894;28;19925;-76
2022/09/23 04:59:36;;;;;;;;;;;;;;;6.44;79.08;100914.03;4991821;28;19972;-76
2022/09/23 05:02:46;;;;;;;;;;;;;;;6.54;79.00;100912.88;5013075;28;19929;-77
2022/09/23 05:05:50;;;;;;;;;;;;;;;6.50;79.06;100919.03;4994386;28;19967;-76
2022/09/23 05:08:54;;;;;;;;;;;;;;;6.74;77.76;100923.53;4978732;28;20360;-76
2022/09/23 05:11:57;;;;;;;;;;;;;;;6.47;78.31;100919.13;4980654;28;19925;-76
2022/09/23 05:15:04;;;;;;;;;;;;;;;6.50;78.52;100921.63;4985283;28;19920;-75
2022/09/23 05:18:10;;;;;;;;;;;;;;;6.58;77.97;100922.28;4996191;28;19925;-75
2022/09/23 05:21:19;;;;;;;;;;;;;;;6.60;78.16;100925.66;4994787;28;19925;-75
2022/09/23 05:24:23;;;;;;;;;;;;;;;6.49;78.17;100922.53;4993927;28;20686;-76
2022/09/23 05:27:27;;;;;;;;;;;;;;;6.69;77.98;100921.94;4991479;28;19984;-76
2022/09/23 05:30:31;;;;;;;;;;;;;;;6.48;79.11;100915.66;4991933;28;19936;-75
2022/09/23 05:33:34;;;;;;;;;;;;;;;6.61;78.82;100914.41;4973068;28;19960;-76
2022/09/23 05:36:38;;;;;;;;;;;;;;;6.65;78.12;100918.59;4952955;28;19981;-75
2022/09/23 05:39:41;;;;;;;;;;;;;;;6.53;78.65;100916.34;4960130;28;19921;-75
2022/09/23 05:42:47;;;;;;;;;;;;;;;6.64;78.59;100916.06;4969368;28;19925;-75
2022/09/23 05:45:50;;;;;;;;;;;;;;;6.52;79.18;100925.06;4971148;28;19921;-76
2022/09/23 05:48:54;;;;;;;;;;;;;;;6.63;78.97;100920.38;4976588;28;19920;-75
2022/09/23 05:51:58;;;;;;;;;;;;;;;6.63;78.45;100925.56;4986209;28;20403;-76
2022/09/23 05:55:01;;;;;;;;;;;;;;;6.46;78.68;100918.28;4980608;28;20057;-75
2022/09/23 05:58:05;;;;;;;;;;;;;;;6.68;78.88;100915.06;4971824;28;20016;-76
2022/09/23 06:01:11;;;;;;;;;;;;;;;6.37;79.69;100917.69;4971904;28;19924;-76
2022/09/23 06:04:15;;;;;;;;;;;;;;;6.57;79.37;100915.34;4987071;28;20056;-76
2022/09/23 06:07:20;;;;;;;;;;;;;;;6.55;78.92;100914.56;4979390;28;20340;-75
2022/09/23 06:10:23;;;;;;;;;;;;;;;6.45;80.14;100923.53;4991105;28;19947;-76
2022/09/23 06:13:27;;;;;;;;;;;;;;;6.49;80.26;100917.34;4990838;28;19921;-76
2022/09/23 06:16:32;;;;;;;;;;;;;;;6.51;80.08;100916.41;4978316;28;20443;-76
2022/09/23 06:19:36;;;;;;;;;;;;;;;6.45;80.14;100915.75;4970916;28;20388;-77
2022/09/23 06:22:40;;;;;;;;;;;;;;;6.62;79.95;100908.28;4971343;28;20329;-77
2022/09/23 06:25:43;;;;;;;;;;;;;;;6.52;79.45;100907.72;4975590;28;19921;-77
2022/09/23 06:28:47;;;;;;;;;;;;;;;6.56;79.38;100905.88;4970609;28;20068;-77
2022/09/23 06:31:51;;;;;;;;;;;;;;;6.53;79.29;100913.75;4976505;28;19920;-77
2022/09/23 06:34:55;;;;;;;;;;;;;;;6.49;79.84;100912.16;4990147;28;19973;-77
2022/09/23 06:38:02;;;;;;;;;;;;;;;6.58;79.58;100908.44;4951190;29;20373;-76
2022/09/23 06:41:05;;;;;;;;;;;;;;;6.72;78.58;100907.13;4950472;28;19965;-76
2022/09/23 06:44:09;;;;;;;;;;;;;;;6.47;80.56;100899.19;4950835;28;19920;-76
2022/09/23 06:47:15;;;;;;;;;;;;;;;6.68;79.92;100894.28;4983154;28;19920;-76
2022/09/23 06:50:18;;;;;;;;;;;;;;;6.56;79.34;100898.09;4990177;28;19964;-76
2022/09/23 06:53:22;;;;;;;;;;;;;;;6.76;78.48;100894.88;4973426;28;19922;-76
2022/09/23 06:56:25;;;;;;;;;;;;;;;7.00;77.70;100898.47;4982153;28;20063;-76
2022/09/23 06:59:28;;;;;;;;;;;;;;;7.08;76.45;100891.25;4968935;28;19920;-76
2022/09/23 07:02:32;;;;;;;;;;;;;;;7.01;76.30;100902.75;4971888;28;19924;-76
2022/09/23 07:05:37;;;;;;;;;;;;;;;6.59;79.12;100903.19;4971960;28;19920;-75
2022/09/23 07:08:45;;;;;;;;;;;;;;;6.86;77.83;100900.63;4969628;28;20000;-76
2022/09/23 07:11:49;;;;;;;;;;;;;;;6.88;77.78;100904.91;4970320;28;20316;-76
2022/09/23 07:14:56;;;;;;;;;;;;;;;6.86;78.03;100903.25;4976653;28;19933;-76
2022/09/23 07:18:00;;;;;;;;;;;;;;;6.86;78.72;100905.84;4989086;28;19968;-76
2022/09/23 07:21:14;;;;;;;;;;;;;;;6.99;78.53;100912.38;4988974;28;19964;-76
2022/09/23 07:24:21;;;;;;;;;;;;;;;7.03;78.45;100905.34;4989002;28;19996;-75
2022/09/23 07:27:27;;;;;;;;;;;;;;;7.00;79.50;100911.47;4988631;28;19928;-75
2022/09/23 07:30:30;;;;;;;;;;;;;;;7.03;79.42;100908.78;4987046;28;19976;-76
2022/09/23 07:33:35;;;;;;;;;;;;;;;7.18;78.82;100902.25;4988588;28;20379;-76
2022/09/23 07:36:39;;;;;;;;;;;;;;;7.32;78.77;100904.41;4966110;28;19921;-76
2022/09/23 07:39:43;;;;;;;;;;;;;;;7.42;79.66;100905.78;4969903;28;19921;-76
2022/09/23 07:42:46;;;;;;;;;;;;;;;7.51;78.47;100902.88;4971611;28;20365;-76
2022/09/23 07:45:50;;;;;;;;;;;;;;;7.50;79.51;100909.00;4987637;28;19943;-76
2022/09/23 07:48:54;;;;;;;;;;;;;;;7.51;79.42;100905.50;4988271;28;19921;-76
2022/09/23 07:51:57;;;;;;;;;;;;;;;7.78;79.47;100908.03;4987931;28;20005;-76
2022/09/23 07:55:01;;;;;;;;;;;;;;;7.91;79.33;100898.91;4980230;28;20005;-76
2022/09/23 07:58:04;;;;;;;;;;;;;;;7.94;80.47;100904.00;4970930;28;19972;-76
2022/09/23 08:01:09;;;;;;;;;;;;;;;7.96;81.30;100902.19;4986621;28;19928;-76
2022/09/23 08:04:16;;;;;;;;;;;;;;;8.09;80.94;100889.59;4969257;28;20466;-76
2022/09/23 08:07:21;;;;;;;;;;;;;;;8.25;81.09;100893.34;4968158;28;20393;-77
2022/09/23 08:10:24;;;;;;;;;;;;;;;8.50;80.67;100897.69;4968947;28;20461;-76
2022/09/23 08:13:27;;;;;;;;;;;;;;;8.69;80.12;100882.19;4991219;28;19913;-76
2022/09/23 08:16:31;;;;;;;;;;;;;;;8.78;80.52;100887.03;4992436;28;19921;-77
2022/09/23 08:19:35;;;;;;;;;;;;;;;8.96;79.76;100881.09;4992568;28;19963;-76
2022/09/23 08:22:38;;;;;;;;;;;;;;;9.01;80.27;100884.38;4980437;28;19972;-76
2022/09/23 08:25:42;;;;;;;;;;;;;;;9.07;80.95;100888.50;4991477;28;19984;-77
2022/09/23 08:28:46;;;;;;;;;;;;;;;9.10;80.18;100888.38;4991652;28;19924;-76
2022/09/23 08:31:50;;;;;;;;;;;;;;;9.23;80.20;100881.75;4992277;28;19925;-77
2022/09/23 08:34:53;;;;;;;;;;;;;;;9.27;80.11;100890.28;4992142;28;20005;-78
2022/09/23 08:37:57;;;;;;;;;;;;;;;9.42;80.04;100878.38;4953385;28;19925;-81
2022/09/23 08:41:03;;;;;;;;;;;;;;;9.76;78.84;100869.94;4974158;28;19929;-77
2022/09/23 08:44:36;;;;;;;;;;;;;;;9.92;78.42;100865.78;4990251;28;19923;-78
2022/09/23 08:47:39;;;;;;;;;;;;;;;10.00;77.92;100866.25;4990335;28;19964;-82
2022/09/23 08:50:48;;;;;;;;;;;;;;;10.30;80.67;100865.81;4952674;28;19921;-73
2022/09/23 08:53:58;;;;;;;;;;;;;;;10.44;78.82;100867.81;4952863;28;20420;-74
2022/09/23 08:57:03;;;;;;;;;;;;;;;10.39;75.83;100867.19;4977428;28;19920;-73
2022/09/23 09:00:13;;;;;;;;;;;;;;;10.43;75.92;100859.13;4971966;28;19920;-73
2022/09/23 09:03:25;;;;;;;;;;;;;;;10.47;75.01;100852.00;4972290;28;19968;-73
2022/09/23 09:06:33;;;;;;;;;;;;;;;10.71;74.80;100853.44;4971040;28;20282;-74
2022/09/23 09:09:36;;;;;;;;;;;;;;;10.88;74.38;100855.25;4982593;28;19924;-74
2022/09/23 09:12:42;;;;;;;;;;;;;;;10.90;73.84;100852.56;4980513;28;20030;-76
2022/09/23 09:16:04;;;;;;;;;;;;;;;11.05;72.96;100845.75;4972525;28;19921;-74
2022/09/23 09:19:17;;;;;;;;;;;;;;;11.21;73.01;100843.22;4971816;28;19929;-73
2022/09/23 09:22:25;;;;;;;;;;;;;;;11.15;71.86;100837.34;4940957;28;19974;-73
2022/09/23 09:25:43;;;;;;;;;;;;;;;11.12;72.21;100837.50;4933474;29;19921;-73
2022/09/23 09:29:09;;;;;;;;;;;;;;;11.19;72.38;100838.03;4933692;29;19922;-73
2022/09/23 09:32:22;;;;;;;;;;;;;;;11.34;73.59;100833.81;4933010;29;20013;-73
2022/09/23 09:35:35;;;;;;;;;;;;;;;11.48;72.99;100833.09;4949178;28;19942;-73
2022/09/23 09:38:38;;;;;;;;;;;;;;;11.51;72.27;100827.72;4966577;28;20443;-73
2022/09/23 09:41:58;;;;;;;;;;;;;;;11.60;71.35;100817.63;4958632;28;19976;-73
2022/09/23 09:45:04;;;;;;;;;;;;;;;11.75;71.32;100817.75;4954830;28;20531;-73
2022/09/23 09:48:19;;;;;;;;;;;;;;;11.89;70.82;100809.19;4954434;28;19922;-74
2022/09/23 09:51:23;;;;;;;;;;;;;;;11.99;70.30;100802.53;4955150;28;20603;-73
2022/09/23 09:54:30;;;;;;;;;;;;;;;12.05;70.20;100802.19;4962713;28;19961;-73
2022/09/23 09:57:39;;;;;;;;;;;;;;;12.09;69.57;100798.47;4957058;28;20273;-73
2022/09/23 10:00:44;;;;;;;;;;;;;;;12.25;70.94;100795.88;4933554;29;19921;-73
2022/09/23 10:03:49;;;;;;;;;;;;;;;12.40;70.09;100794.19;4935882;29;20587;-74
2022/09/23 10:07:06;;;;;;;;;;;;;;;12.53;68.46;100792.56;4956338;28;19956;-73
2022/09/23 10:10:20;;;;;;;;;;;;;;;12.68;67.97;100783.84;4969764;28;20001;-73
2022/09/23 10:13:26;;;;;;;;;;;;;;;12.76;68.31;100771.13;4952084;28;19937;-73
2022/09/23 10:16:30;;;;;;;;;;;;;;;12.78;67.76;100766.63;4939767;28;19968;-73
2022/09/23 10:19:36;;;;;;;;;;;;;;;12.88;68.55;100761.69;4951562;28;19946;-73
2022/09/23 10:22:41;;;;;;;;;;;;;;;12.96;67.25;100769.13;4951285;28;20026;-74
2022/09/23 10:25:54;;;;;;;;;;;;;;;12.99;67.65;100767.16;4950685;28;20328;-74
2022/09/23 10:29:00;;;;;;;;;;;;;;;13.07;67.47;100761.47;4951386;28;19933;-74
2022/09/23 10:32:24;;;;;;;;;;;;;;;13.04;66.53;100753.75;4951626;28;19922;-74
2022/09/23 10:35:31;;;;;;;;;;;;;;;13.15;67.76;100751.38;4954785;28;19921;-73
2022/09/23 10:38:35;;;;;;;;;;;;;;;13.35;67.58;100749.34;4955135;29;20277;-74
2022/09/23 10:48:48;;;;;;;;;;;;;;;13.63;66.49;100743.28;4934517;29;19922;-73
2022/09/23 10:51:58;;;;;;;;;;;;;;;13.95;67.29;100739.47;4935076;29;20351;-73
2022/09/23 10:55:13;;;;;;;;;;;;;;;14.15;65.75;100738.22;4935834;29;19966;-74
2022/09/23 10:58:25;;;;;;;;;;;;;;;14.27;65.12;100722.59;4947683;28;19937;-74
2022/09/23 11:01:47;;;;;;;;;;;;;;;14.32;65.00;100726.59;4943300;29;19937;-74
2022/09/23 11:04:54;;;;;;;;;;;;;;;14.38;65.11;100720.09;4955769;29;19941;-74
2022/09/23 11:08:21;;;;;;;;;;;;;;;14.40;64.93;100712.97;4954555;29;19945;-74
2022/09/23 11:11:33;;;;;;;;;;;;;;;14.47;64.49;100708.97;4943475;29;19922;-74
2022/09/23 11:14:44;;;;;;;;;;;;;;;14.67;64.26;100702.44;4955804;29;20039;-74
2022/09/23 11:17:57;;;;;;;;;;;;;;;14.64;63.46;100708.75;4954913;29;19945;-74
2022/09/23 11:21:06;;;;;;;;;;;;;;;14.75;61.40;100707.19;4954460;29;20017;-74
2022/09/23 11:24:22;;;;;;;;;;;;;;;14.82;61.54;100692.66;4954986;29;19930;-74
2022/09/23 11:27:38;;;;;;;;;;;;;;;14.86;61.67;100699.41;4954527;29;19961;-74
2022/09/23 11:30:59;;;;;;;;;;;;;;;14.92;60.66;100690.25;4954547;29;20345;-74
2022/09/23 11:34:13;;;;;;;;;;;;;;;14.96;60.84;100686.47;4957855;28;20388;-74
2022/09/23 11:37:19;;;;;;;;;;;;;;;15.00;61.89;100682.69;4954773;29;19924;-72
2022/09/23 11:40:28;;;;;;;;;;;;;;;15.21;61.52;100688.25;4954617;29;19929;-72
2022/09/23 11:43:35;;;;;;;;;;;;;;;15.39;59.84;100679.09;4955952;29;19961;-72
2022/09/23 11:46:41;;;;;;;;;;;;;;;15.52;60.37;100671.16;4941340;29;20104;-72
2022/09/23 11:50:00;;;;;;;;;;;;;;;15.45;59.88;100665.50;4954660;29;20384;-72
2022/09/23 11:53:19;;;;;;;;;;;;;;;15.66;60.56;100657.00;4942603;29;19961;-72
2022/09/23 11:56:32;;;;;;;;;;;;;;;15.86;58.38;100653.81;4943251;29;20014;-72
2022/09/23 11:59:47;;;;;;;;;;;;;;;15.95;57.38;100652.28;4957429;28;20013;-73
2022/09/23 12:02:57;;;;;;;;;;;;;;;15.93;56.85;100647.16;4972741;28;19921;-72
2022/09/23 12:06:08;;;;;;;;;;;;;;;16.00;56.88;100640.47;4973885;28;20369;-72
2022/09/23 12:09:24;;;;;;;;;;;;;;;16.26;57.59;100632.41;4973944;28;19925;-73
2022/09/23 12:12:27;;;;;;;;;;;;;;;16.39;55.82;100624.44;4973472;28;19936;-73
2022/09/23 12:15:33;;;;;;;;;;;;;;;16.56;54.31;100624.03;4961940;28;20009;-73
2022/09/23 12:18:49;;;;;;;;;;;;;;;16.91;52.94;100625.75;4973885;28;19925;-73
2022/09/23 12:22:04;;;;;;;;;;;;;;;17.09;50.23;100626.16;4973688;28;20369;-73
2022/09/23 12:25:17;;;;;;;;;;;;;;;17.19;48.79;100620.00;4973560;28;19972;-72
2022/09/23 12:28:34;;;;;;;;;;;;;;;17.27;47.43;100615.94;4973453;28;20086;-73
2022/09/23 12:31:40;;;;;;;;;;;;;;;17.48;47.16;100616.03;4974083;28;19921;-72
2022/09/23 12:34:50;;;;;;;;;;;;;;;18.19;41.61;100614.69;4973757;28;19925;-73
2022/09/23 12:37:54;;;;;;;;;;;;;;;19.70;40.26;100603.47;4934780;29;19925;-74
2022/09/23 12:40:58;;;;;;;;;;;;;;;22.23;36.13;100600.00;4934282;29;20255;-74
2022/09/23 12:44:05;;;;;;;;;;;;;;;25.54;30.97;100593.06;4933451;29;20370;-74
2022/09/23 12:47:23;;;;;;;;;;;;;;;26.52;28.27;100582.47;4922707;29;19922;-74
2022/09/23 12:50:47;;;;;;;;;;;;;;;27.86;26.96;100588.56;4935045;29;19922;-74
2022/09/23 12:53:52;;;;;;;;;;;;;;;30.73;25.01;100581.47;4934785;29;19926;-73
2022/09/23 12:56:57;;;;;;;;;;;;;;;31.00;22.55;100573.31;4945247;29;19922;-73
2022/09/23 13:00:11;;;;;;;;;;;;;;;30.73;22.42;100573.38;4942880;28;19980;-74
2022/09/23 13:06:55;;;;;;;;;;;;;;;32.67;19.95;100556.81;4976055;28;19921;-75
2022/09/23 13:10:15;;;;;;;;;;;;;;;31.89;19.65;100556.25;4976586;28;20293;-75
2022/09/23 13:13:34;;;;;;;;;;;;;;;33.25;18.41;100549.06;4981009;28;19920;-74
2022/09/23 13:16:45;;;;;;;;;;;;;;;33.63;18.22;100537.06;4977439;28;19921;-74
2022/09/23 13:19:56;;;;;;;;;;;;;;;30.85;21.52;100538.47;4975352;28;19949;-74
2022/09/23 13:23:06;;;;;;;;;;;;;;;32.12;20.85;100528.59;4976933;28;19921;-74
2022/09/23 13:26:11;;;;;;;;;;;;;;;32.03;20.20;100527.22;4952518;28;19968;-74
2022/09/23 13:29:22;;;;;;;;;;;;;;;27.04;26.14;100532.44;4976756;28;20380;-74
2022/09/23 13:32:30;;;;;;;;;;;;;;;25.58;29.55;100530.94;4976104;28;19920;-73
2022/09/23 13:35:50;;;;;;;;;;;;;;;24.69;30.84;100530.34;4974249;28;19924;-74
2022/09/23 13:39:12;;;;;;;;;;;;;;;23.40;32.89;100523.00;4955436;29;19926;-74
2022/09/23 13:42:34;;;;;;;;;;;;;;;22.73;33.84;100520.22;4956642;29;19921;-74
2022/09/23 13:45:41;;;;;;;;;;;;;;;22.98;32.04;100517.72;4956092;29;20131;-73
2022/09/23 13:48:47;;;;;;;;;;;;;;;24.08;30.39;100516.56;4956423;29;19977;-73
2022/09/23 13:51:54;;;;;;;;;;;;;;;24.77;30.32;100516.94;4956506;29;19925;-73
2022/09/23 13:54:58;;;;;;;;;;;;;;;24.13;31.68;100524.09;4956296;29;19920;-73
2022/09/23 13:58:12;;;;;;;;;;;;;;;24.51;29.93;100522.53;4956760;29;20381;-73
2022/09/23 14:01:24;;;;;;;;;;;;;;;24.75;28.56;100518.94;4942607;28;19993;-74
2022/09/23 14:04:28;;;;;;;;;;;;;;;25.25;30.34;100514.25;4969315;28;20081;-74
2022/09/23 14:07:31;;;;;;;;;;;;;;;26.04;27.64;100506.84;4974955;28;19937;-73
2022/09/23 14:10:35;;;;;;;;;;;;;;;26.47;27.90;100499.03;4974380;28;19964;-74
2022/09/23 14:13:41;;;;;;;;;;;;;;;23.61;30.96;100503.00;4975352;28;19960;-73
2022/09/23 14:16:48;;;;;;;;;;;;;;;22.71;32.08;100502.72;4975045;28;20328;-73
2022/09/23 14:19:52;;;;;;;;;;;;;;;22.10;35.14;100512.47;4975610;28;19925;-73
2022/09/23 14:23:22;;;;;;;;;;;;;;;21.55;36.71;100516.16;4976480;28;20440;-73
2022/09/23 14:27:14;;;;;;;;;;;;;;;21.10;37.38;100497.53;4965536;28;20413;-74
2022/09/23 14:30:22;;;;;;;;;;;;;;;20.92;39.47;100494.84;4958723;29;19925;-74
2022/09/23 14:33:38;;;;;;;;;;;;;;;20.31;35.45;100496.16;4943543;29;20115;-73
2022/09/23 14:40:09;;;;;;;;;;;;;;;20.32;41.31;100492.50;4962479;28;19973;-74
2022/09/23 14:43:21;;;;;;;;;;;;;;;20.33;37.97;100493.38;4963923;28;20384;-74
2022/09/23 14:46:26;;;;;;;;;;;;;;;20.44;38.80;100494.03;4970579;28;19965;-74
2022/09/23 14:49:30;;;;;;;;;;;;;;;20.34;38.71;100487.06;4974643;28;19921;-74
2022/09/23 14:52:34;;;;;;;;;;;;;;;20.24;40.27;100488.94;4974749;28;19960;-75
2022/09/23 14:55:37;;;;;;;;;;;;;;;19.98;39.57;100481.56;4974942;28;19956;-74
2022/09/23 14:58:47;;;;;;;;;;;;;;;19.41;41.97;100480.56;4974883;28;20397;-74
2022/09/23 15:01:51;;;;;;;;;;;;;;;19.34;42.46;100474.16;4974723;28;19925;-74
2022/09/23 15:05:06;;;;;;;;;;;;;;;19.21;43.33;100472.59;4965484;28;20440;-74
2022/09/23 15:08:16;;;;;;;;;;;;;;;19.12;46.33;100470.75;4973945;28;19929;-74
2022/09/23 15:11:21;;;;;;;;;;;;;;;19.08;46.19;100472.03;4974279;28;20005;-74
2022/09/23 15:14:26;;;;;;;;;;;;;;;19.00;46.91;100467.38;4973924;28;19920;-74
2022/09/23 15:17:35;;;;;;;;;;;;;;;18.96;47.42;100476.59;4974189;28;19968;-74
2022/09/23 15:20:39;;;;;;;;;;;;;;;18.69;48.36;100474.50;4973498;28;19972;-74
2022/09/23 15:23:47;;;;;;;;;;;;;;;18.72;50.29;100471.63;4973684;28;19943;-74
2022/09/23 15:26:50;;;;;;;;;;;;;;;18.63;52.57;100459.13;4972916;28;19969;-73
2022/09/23 15:29:55;;;;;;;;;;;;;;;18.54;52.47;100455.50;4973376;28;19960;-73
2022/09/23 15:32:58;;;;;;;;;;;;;;;18.44;53.35;100451.97;4973383;28;19921;-72
2022/09/23 15:36:02;;;;;;;;;;;;;;;18.39;54.67;100456.00;4967554;28;19921;-73
2022/09/23 15:39:07;;;;;;;;;;;;;;;18.25;55.81;100450.06;4953744;29;20429;-73
2022/09/23 15:42:10;;;;;;;;;;;;;;;18.13;58.25;100459.06;4942773;29;19984;-73
2022/09/23 15:45:13;;;;;;;;;;;;;;;18.12;58.00;100455.59;4954265;29;19937;-74
2022/09/23 15:48:21;;;;;;;;;;;;;;;18.05;57.43;100464.97;4959612;29;19920;-73
2022/09/23 15:51:37;;;;;;;;;;;;;;;17.95;57.29;100463.25;4965978;29;20073;-72
2022/09/23 15:54:42;;;;;;;;;;;;;;;17.77;58.38;100471.78;4956141;29;20466;-74
2022/09/23 15:57:45;;;;;;;;;;;;;;;17.54;58.48;100470.16;4956635;28;20062;-74
2022/09/23 16:00:51;;;;;;;;;;;;;;;17.40;57.90;100474.75;4945773;28;20376;-73
2022/09/23 16:03:55;;;;;;;;;;;;;;;17.42;58.88;100470.19;4954197;28;19929;-73
2022/09/23 16:07:00;;;;;;;;;;;;;;;17.34;60.38;100469.97;4963501;28;20473;-73
2022/09/23 16:10:04;;;;;;;;;;;;;;;17.27;60.30;100474.09;4954355;29;20374;-73
2022/09/23 16:13:12;;;;;;;;;;;;;;;17.28;59.28;100474.91;4953792;29;19922;-73
2022/09/23 16:16:15;;;;;;;;;;;;;;;17.27;60.09;100474.09;4954328;29;20120;-73
2022/09/23 16:19:19;;;;;;;;;;;;;;;17.23;60.81;100471.81;4953895;29;19973;-73
2022/09/23 16:22:22;;;;;;;;;;;;;;;17.19;61.32;100481.78;4952525;28;19965;-74
2022/09/23 16:25:28;;;;;;;;;;;;;;;17.01;61.61;100473.56;4952934;29;20061;-73
2022/09/23 16:28:31;;;;;;;;;;;;;;;16.83;62.90;100483.78;4953818;29;19921;-73
2022/09/23 16:31:35;;;;;;;;;;;;;;;16.79;65.80;100471.78;4953740;29;19980;-73
2022/09/23 16:34:38;;;;;;;;;;;;;;;16.79;65.36;100477.06;4945978;29;20021;-73
2022/09/23 16:37:45;;;;;;;;;;;;;;;16.76;65.08;100477.28;4957178;29;19938;-73
2022/09/23 16:40:49;;;;;;;;;;;;;;;16.67;64.95;100475.34;4956699;29;20042;-73
2022/09/23 16:43:53;;;;;;;;;;;;;;;16.43;65.39;100484.22;4967987;28;20031;-72